Beerse, Belgium
Current Conditions -  °F | °C
As of 12:55 AM on Sunday 21 Dec 2014 (Local Time) from EHGR Reporting Station
Scattered Clouds Scattered Clouds  
Wind Chill:   Ceiling: Unl
Heat Index:   Visibility: 6mi
Dew Point:   Wind: 6mph
Humidity: 93%   Direction: 240°WSW
Pressure: 30.36"   Gusts: NA
Location:  51.32°N, 4.85°E
Report Text: EHGR 202355Z AUTO 24005KT 9999 SCT044 05/04 Q1028 BLU
Loading
Personal Weather Stations






























Interactive Weather Map New forecast layout! Learn more

10-Day Weather Forecast

Advertisements
Track Severe Weather on mobile